createdAt,value
2017-03-25T00:00:24.704Z,1026.86
2017-03-25T00:01:05.412Z,1026.86
2017-03-25T00:01:46.241Z,1026.78
2017-03-25T00:02:26.882Z,1026.82
2017-03-25T00:03:07.488Z,1026.84
2017-03-25T00:03:48.293Z,1026.8
2017-03-25T00:04:28.921Z,1026.84
2017-03-25T00:05:09.547Z,1026.81
2017-03-25T00:05:50.163Z,1026.82
2017-03-25T00:06:30.914Z,1026.8
2017-03-25T00:07:11.579Z,1026.83
2017-03-25T00:07:52.223Z,1026.79
2017-03-25T00:08:32.799Z,1026.82
2017-03-25T00:09:13.424Z,1026.81
2017-03-25T00:09:54.105Z,1026.79
2017-03-25T00:10:34.722Z,1026.81
2017-03-25T00:11:15.330Z,1026.75
2017-03-25T00:11:55.887Z,1026.79
2017-03-25T00:12:36.529Z,1026.77
2017-03-25T00:13:17.141Z,1026.76
2017-03-25T00:13:57.764Z,1026.79
2017-03-25T00:14:38.479Z,1026.78
2017-03-25T00:15:19.078Z,1026.78
2017-03-25T00:15:59.683Z,1026.77
2017-03-25T00:16:40.296Z,1026.76
2017-03-25T00:17:20.891Z,1026.77
2017-03-25T00:18:01.488Z,1026.72
2017-03-25T00:18:42.099Z,1026.74
2017-03-25T00:19:22.693Z,1026.73
2017-03-25T00:20:03.292Z,1026.74
2017-03-25T00:20:43.886Z,1026.76
2017-03-25T00:21:24.500Z,1026.79
2017-03-25T00:22:05.088Z,1026.77
2017-03-25T00:22:45.700Z,1026.76
2017-03-25T00:23:26.268Z,1026.77
2017-03-25T00:24:06.853Z,1026.77
2017-03-25T00:24:47.530Z,1026.78
2017-03-25T00:25:28.140Z,1026.73
2017-03-25T00:26:08.741Z,1026.77
2017-03-25T00:26:49.360Z,1026.77
2017-03-25T00:27:29.982Z,1026.77
2017-03-25T00:28:10.592Z,1026.8
2017-03-25T00:28:51.172Z,1026.82
2017-03-25T00:29:31.757Z,1026.79
2017-03-25T00:30:12.355Z,1026.82
2017-03-25T00:30:52.939Z,1026.81
2017-03-25T00:31:33.525Z,1026.82
2017-03-25T00:32:14.120Z,1026.84
2017-03-25T00:32:54.723Z,1026.82
2017-03-25T00:33:35.525Z,1026.87
2017-03-25T00:34:16.138Z,1026.9
2017-03-25T00:34:56.881Z,1026.88
2017-03-25T00:35:37.510Z,1026.86
2017-03-25T00:36:18.201Z,1026.86
2017-03-25T00:36:58.929Z,1026.83
2017-03-25T00:37:39.649Z,1026.82
2017-03-25T00:38:20.346Z,1026.81
2017-03-25T00:39:01.047Z,1026.8
2017-03-25T00:39:41.744Z,1026.81
2017-03-25T00:40:22.478Z,1026.82
2017-03-25T00:41:03.074Z,1026.81
2017-03-25T00:41:43.675Z,1026.81
2017-03-25T00:42:24.352Z,1026.8
2017-03-25T00:43:04.962Z,1026.8
2017-03-25T00:43:45.617Z,1026.82
2017-03-25T00:44:26.237Z,1026.81
2017-03-25T00:45:06.869Z,1026.78
2017-03-25T00:45:47.461Z,1026.78
2017-03-25T00:46:28.099Z,1026.77
2017-03-25T00:47:08.692Z,1026.78
2017-03-25T00:47:49.302Z,1026.77
2017-03-25T00:48:30.155Z,1026.8
2017-03-25T00:49:10.712Z,1026.76
2017-03-25T00:49:51.370Z,1026.76
2017-03-25T00:50:31.961Z,1026.75
2017-03-25T00:51:12.617Z,1026.69
2017-03-25T00:51:53.231Z,1026.73
2017-03-25T00:52:33.850Z,1026.72
2017-03-25T00:53:14.515Z,1026.71
2017-03-25T00:53:55.156Z,1026.7
2017-03-25T00:54:35.818Z,1026.73
2017-03-25T00:55:16.422Z,1026.73
2017-03-25T00:55:57.030Z,1026.72
2017-03-25T00:56:37.665Z,1026.72
2017-03-25T00:57:18.262Z,1026.73
2017-03-25T00:57:58.863Z,1026.69
2017-03-25T00:58:39.427Z,1026.73
2017-03-25T00:59:20.023Z,1026.68
2017-03-25T01:00:00.605Z,1026.7
2017-03-25T01:00:41.201Z,1026.68
2017-03-25T01:01:21.890Z,1026.64
2017-03-25T01:02:02.453Z,1026.62
2017-03-25T01:02:43.054Z,1026.63
2017-03-25T01:03:23.643Z,1026.61
2017-03-25T01:04:04.272Z,1026.61
2017-03-25T01:04:44.867Z,1026.57
2017-03-25T01:05:25.524Z,1026.58
2017-03-25T01:06:06.103Z,1026.6
2017-03-25T01:06:46.674Z,1026.59
2017-03-25T01:07:27.249Z,1026.58
2017-03-25T01:08:07.843Z,1026.61
2017-03-25T01:08:48.460Z,1026.57
2017-03-25T01:09:29.125Z,1026.62
2017-03-25T01:10:09.711Z,1026.62
2017-03-25T01:10:50.293Z,1026.6
2017-03-25T01:11:30.901Z,1026.62
2017-03-25T01:12:11.493Z,1026.62
2017-03-25T01:12:52.162Z,1026.59
2017-03-25T01:13:33.420Z,1026.57
2017-03-25T01:14:13.996Z,1026.54
2017-03-25T01:14:54.576Z,1026.54
2017-03-25T01:15:35.152Z,1026.54
2017-03-25T01:16:15.715Z,1026.53
2017-03-25T01:16:56.296Z,1026.58
2017-03-25T01:17:36.896Z,1026.56
2017-03-25T01:18:17.471Z,1026.53
2017-03-25T01:18:58.052Z,1026.54
2017-03-25T01:19:38.629Z,1026.5
2017-03-25T01:20:19.198Z,1026.47
2017-03-25T01:20:59.812Z,1026.48
2017-03-25T01:21:40.422Z,1026.44
2017-03-25T01:22:21.007Z,1026.44
2017-03-25T01:23:01.622Z,1026.45
2017-03-25T01:23:42.197Z,1026.44
2017-03-25T01:24:22.808Z,1026.47
2017-03-25T01:25:03.416Z,1026.44
2017-03-25T01:25:45.690Z,1026.44
2017-03-25T01:26:26.257Z,1026.44
2017-03-25T01:27:06.935Z,1026.38
2017-03-25T01:27:47.633Z,1026.42
2017-03-25T01:28:28.284Z,1026.43
2017-03-25T01:29:08.932Z,1026.42
2017-03-25T01:29:49.561Z,1026.4
2017-03-25T01:30:30.266Z,1026.39
2017-03-25T01:31:11.038Z,1026.39
2017-03-25T01:31:51.613Z,1026.43
2017-03-25T01:32:32.270Z,1026.45
2017-03-25T01:33:12.866Z,1026.45
2017-03-25T01:33:53.458Z,1026.41
2017-03-25T01:34:34.066Z,1026.37
2017-03-25T01:35:14.666Z,1026.38
2017-03-25T01:35:55.245Z,1026.38
2017-03-25T01:36:37.535Z,1026.33
2017-03-25T01:37:17.223Z,1026.33
2017-03-25T01:37:57.804Z,1026.31
2017-03-25T01:38:38.439Z,1026.29
2017-03-25T01:39:19.040Z,1026.29
2017-03-25T01:39:59.647Z,1026.27
2017-03-25T01:40:40.281Z,1026.26
2017-03-25T01:41:20.903Z,1026.22
2017-03-25T01:42:01.483Z,1026.19
2017-03-25T01:42:42.064Z,1026.18
2017-03-25T01:43:22.648Z,1026.17
2017-03-25T01:44:03.249Z,1026.18
2017-03-25T01:44:43.837Z,1026.18
2017-03-25T01:45:24.406Z,1026.16
2017-03-25T01:46:04.998Z,1026.14
2017-03-25T01:46:45.666Z,1026.16
2017-03-25T01:47:26.255Z,1026.14
2017-03-25T01:48:06.832Z,1026.17
2017-03-25T01:48:47.419Z,1026.16
2017-03-25T01:49:28.022Z,1026.21
2017-03-25T01:50:08.658Z,1026.21
2017-03-25T01:50:49.249Z,1026.18
2017-03-25T01:51:29.828Z,1026.14
2017-03-25T01:52:10.489Z,1026.15
2017-03-25T01:52:51.073Z,1026.18
2017-03-25T01:53:31.655Z,1026.16
2017-03-25T01:54:12.232Z,1026.13
2017-03-25T01:54:52.837Z,1026.2
2017-03-25T01:55:33.406Z,1026.16
2017-03-25T01:56:13.981Z,1026.18
2017-03-25T01:56:54.547Z,1026.17
2017-03-25T01:57:35.122Z,1026.22
2017-03-25T01:58:15.702Z,1026.2
2017-03-25T01:58:56.286Z,1026.21
2017-03-25T01:59:36.840Z,1026.2
2017-03-25T02:00:17.461Z,1026.22
2017-03-25T02:00:58.043Z,1026.21
2017-03-25T02:01:38.661Z,1026.2
2017-03-25T02:02:19.243Z,1026.25
2017-03-25T02:02:59.869Z,1026.23
2017-03-25T02:03:40.521Z,1026.23
2017-03-25T02:04:21.174Z,1026.21
2017-03-25T02:05:01.741Z,1026.27
2017-03-25T02:05:42.395Z,1026.21
2017-03-25T02:06:22.990Z,1026.21
2017-03-25T02:07:03.578Z,1026.19
2017-03-25T02:07:44.220Z,1026.17
2017-03-25T02:08:24.895Z,1026.15
2017-03-25T02:09:05.451Z,1026.17
2017-03-25T02:09:46.020Z,1026.06
2017-03-25T02:10:26.593Z,1026.05
2017-03-25T02:11:07.236Z,1026.05
2017-03-25T02:11:47.858Z,1026.01
2017-03-25T02:12:28.458Z,1025.98
2017-03-25T02:13:09.042Z,1026.01
2017-03-25T02:13:49.605Z,1025.95
2017-03-25T02:14:30.227Z,1025.97
2017-03-25T02:15:10.812Z,1025.97
2017-03-25T02:15:51.409Z,1025.95
2017-03-25T02:16:31.988Z,1025.99
2017-03-25T02:17:12.552Z,1025.96
2017-03-25T02:17:53.135Z,1025.93
2017-03-25T02:18:33.773Z,1025.94
2017-03-25T02:19:14.347Z,1026
2017-03-25T02:19:54.927Z,1025.96
2017-03-25T02:20:35.523Z,1025.97
2017-03-25T02:21:16.143Z,1025.96
2017-03-25T02:21:56.735Z,1025.93
2017-03-25T02:22:37.336Z,1025.93
2017-03-25T02:23:17.911Z,1025.97
2017-03-25T02:23:58.504Z,1025.97
2017-03-25T02:24:39.085Z,1025.95
2017-03-25T02:25:19.712Z,1025.94
2017-03-25T02:26:00.407Z,1025.96
2017-03-25T02:26:40.903Z,1025.95
2017-03-25T02:27:21.511Z,1026
2017-03-25T02:28:02.119Z,1025.97
2017-03-25T02:28:42.688Z,1025.97
2017-03-25T02:29:23.342Z,1025.96
2017-03-25T02:30:03.924Z,1025.99
2017-03-25T02:30:44.566Z,1026.01
2017-03-25T02:31:25.156Z,1026.01
2017-03-25T02:32:05.764Z,1025.97
2017-03-25T02:32:46.387Z,1025.99
2017-03-25T02:33:26.953Z,1025.98
2017-03-25T02:34:07.555Z,1026.04
2017-03-25T02:34:48.172Z,1025.99
2017-03-25T02:35:28.753Z,1025.97
2017-03-25T02:36:09.334Z,1025.96
2017-03-25T02:36:49.917Z,1025.97
2017-03-25T02:37:30.546Z,1026
2017-03-25T02:38:11.127Z,1025.96
2017-03-25T02:38:51.785Z,1025.98
2017-03-25T02:39:32.383Z,1025.95
2017-03-25T02:40:13.015Z,1025.95
2017-03-25T02:40:53.609Z,1025.96
2017-03-25T02:41:34.187Z,1025.91
2017-03-25T02:42:14.775Z,1025.96
2017-03-25T02:42:55.359Z,1026
2017-03-25T02:43:35.941Z,1025.97
2017-03-25T02:44:16.521Z,1025.95
2017-03-25T02:44:57.100Z,1025.93
2017-03-25T02:45:37.705Z,1025.94
2017-03-25T02:46:18.329Z,1025.92
2017-03-25T02:46:58.913Z,1025.89
2017-03-25T02:47:39.544Z,1025.93
2017-03-25T02:48:20.122Z,1025.94
2017-03-25T02:49:00.728Z,1025.95
2017-03-25T02:49:41.386Z,1025.96
2017-03-25T02:50:21.922Z,1025.93
2017-03-25T02:51:02.526Z,1025.95
2017-03-25T02:51:43.094Z,1025.94
2017-03-25T02:52:23.702Z,1025.91
2017-03-25T02:53:04.386Z,1025.92
2017-03-25T02:53:44.992Z,1025.94
2017-03-25T02:54:25.547Z,1025.93
2017-03-25T02:55:06.133Z,1025.92
2017-03-25T02:55:46.725Z,1025.93
2017-03-25T02:56:27.312Z,1025.88
2017-03-25T02:57:07.886Z,1025.84
2017-03-25T02:57:48.495Z,1025.87
2017-03-25T02:58:29.134Z,1025.83
2017-03-25T02:59:09.712Z,1025.77
2017-03-25T02:59:50.306Z,1025.77
2017-03-25T03:00:30.929Z,1025.77
2017-03-25T03:01:11.522Z,1025.74
2017-03-25T03:01:52.094Z,1025.78
2017-03-25T03:02:32.684Z,1025.76
2017-03-25T03:03:13.260Z,1025.8
2017-03-25T03:03:53.875Z,1025.72
2017-03-25T03:04:34.493Z,1025.7
2017-03-25T03:05:15.097Z,1025.68
2017-03-25T03:05:55.763Z,1025.69
2017-03-25T03:06:36.357Z,1025.72
2017-03-25T03:07:16.936Z,1025.71
2017-03-25T03:07:57.520Z,1025.67
2017-03-25T03:08:38.092Z,1025.63
2017-03-25T03:09:18.692Z,1025.67
2017-03-25T03:09:59.301Z,1025.7
2017-03-25T03:10:39.901Z,1025.66
2017-03-25T03:11:20.489Z,1025.67
2017-03-25T03:12:01.061Z,1025.69
2017-03-25T03:12:41.661Z,1025.7
2017-03-25T03:13:22.239Z,1025.67
2017-03-25T03:14:02.816Z,1025.63
2017-03-25T03:14:43.400Z,1025.6
2017-03-25T03:15:24.023Z,1025.61
2017-03-25T03:16:04.606Z,1025.62
2017-03-25T03:16:45.231Z,1025.62
2017-03-25T03:17:25.865Z,1025.59
2017-03-25T03:18:06.467Z,1025.58
2017-03-25T03:18:47.081Z,1025.55
2017-03-25T03:19:27.639Z,1025.54
2017-03-25T03:20:08.308Z,1025.55
2017-03-25T03:20:48.930Z,1025.54
2017-03-25T03:21:29.564Z,1025.57
2017-03-25T03:22:10.135Z,1025.56
2017-03-25T03:22:50.716Z,1025.61
2017-03-25T03:23:31.294Z,1025.61
2017-03-25T03:24:11.885Z,1025.63
2017-03-25T03:24:52.472Z,1025.61
2017-03-25T03:25:33.054Z,1025.63
2017-03-25T03:26:13.643Z,1025.61
2017-03-25T03:26:54.262Z,1025.59
2017-03-25T03:27:34.848Z,1025.59
2017-03-25T03:28:15.446Z,1025.59
2017-03-25T03:28:56.071Z,1025.6
2017-03-25T03:29:36.659Z,1025.56
2017-03-25T03:30:17.233Z,1025.57
2017-03-25T03:30:57.874Z,1025.56
2017-03-25T03:31:38.461Z,1025.48
2017-03-25T03:32:19.015Z,1025.51
2017-03-25T03:32:59.631Z,1025.51
2017-03-25T03:33:40.372Z,1025.47
2017-03-25T03:34:20.924Z,1025.51
2017-03-25T03:35:01.517Z,1025.49
2017-03-25T03:35:42.099Z,1025.46
2017-03-25T03:36:22.678Z,1025.48
2017-03-25T03:37:03.279Z,1025.5
2017-03-25T03:37:43.880Z,1025.48
2017-03-25T03:38:24.478Z,1025.49
2017-03-25T03:39:05.079Z,1025.48
2017-03-25T03:39:45.641Z,1025.42
2017-03-25T03:40:26.251Z,1025.43
2017-03-25T03:41:06.829Z,1025.39
2017-03-25T03:41:47.430Z,1025.37
2017-03-25T03:42:28.027Z,1025.35
2017-03-25T03:43:08.607Z,1025.38
2017-03-25T03:43:49.208Z,1025.4
2017-03-25T03:44:29.784Z,1025.4
2017-03-25T03:45:10.444Z,1025.36
2017-03-25T03:45:51.004Z,1025.39
2017-03-25T03:46:31.589Z,1025.39
2017-03-25T03:47:12.182Z,1025.47
2017-03-25T03:47:52.812Z,1025.43
2017-03-25T03:48:33.411Z,1025.44
2017-03-25T03:49:14.036Z,1025.39
2017-03-25T03:49:54.617Z,1025.4
2017-03-25T03:50:35.238Z,1025.39
2017-03-25T03:51:15.822Z,1025.33
2017-03-25T03:51:56.403Z,1025.32
2017-03-25T03:52:36.994Z,1025.39
2017-03-25T03:53:17.567Z,1025.36
2017-03-25T03:53:58.168Z,1025.35
2017-03-25T03:54:38.748Z,1025.35
2017-03-25T03:55:19.329Z,1025.37
2017-03-25T03:55:59.935Z,1025.34
2017-03-25T03:56:40.516Z,1025.37
2017-03-25T03:57:21.088Z,1025.34
2017-03-25T03:58:01.683Z,1025.36
2017-03-25T03:58:42.257Z,1025.39
2017-03-25T03:59:22.821Z,1025.44
2017-03-25T04:00:03.397Z,1025.4
2017-03-25T04:00:44.014Z,1025.41
2017-03-25T04:01:24.610Z,1025.42
2017-03-25T04:02:05.209Z,1025.4
2017-03-25T04:02:45.789Z,1025.42
2017-03-25T04:03:26.368Z,1025.44
2017-03-25T04:04:07.108Z,1025.42
2017-03-25T04:04:47.695Z,1025.41
2017-03-25T04:05:28.354Z,1025.37
2017-03-25T04:06:08.947Z,1025.33
2017-03-25T04:06:49.540Z,1025.32
2017-03-25T04:07:30.174Z,1025.33
2017-03-25T04:08:10.751Z,1025.34
2017-03-25T04:08:51.347Z,1025.35
2017-03-25T04:09:31.947Z,1025.29
2017-03-25T04:10:12.533Z,1025.3
2017-03-25T04:10:53.147Z,1025.25
2017-03-25T04:11:33.741Z,1025.28
2017-03-25T04:12:14.398Z,1025.24
2017-03-25T04:12:54.998Z,1025.25
2017-03-25T04:13:35.546Z,1025.28
2017-03-25T04:14:16.160Z,1025.29
2017-03-25T04:14:56.764Z,1025.29
2017-03-25T04:15:37.348Z,1025.28
2017-03-25T04:16:17.985Z,1025.25
2017-03-25T04:16:58.572Z,1025.24
2017-03-25T04:17:39.156Z,1025.25
2017-03-25T04:18:19.729Z,1025.25
2017-03-25T04:19:00.315Z,1025.24
2017-03-25T04:19:40.925Z,1025.23
2017-03-25T04:20:21.537Z,1025.24
2017-03-25T04:21:02.135Z,1025.24
2017-03-25T04:21:42.712Z,1025.25
2017-03-25T04:22:23.344Z,1025.22
2017-03-25T04:23:03.979Z,1025.16
2017-03-25T04:23:44.577Z,1025.22
2017-03-25T04:24:25.153Z,1025.18
2017-03-25T04:25:05.735Z,1025.15
2017-03-25T04:25:46.324Z,1025.15
2017-03-25T04:26:26.885Z,1025.16
2017-03-25T04:27:07.474Z,1025.16
2017-03-25T04:27:48.090Z,1025.18
2017-03-25T04:28:28.677Z,1025.23
2017-03-25T04:29:09.281Z,1025.19
2017-03-25T04:29:49.893Z,1025.24
2017-03-25T04:30:30.502Z,1025.2
2017-03-25T04:31:11.081Z,1025.23
2017-03-25T04:31:51.669Z,1025.2
2017-03-25T04:32:32.293Z,1025.17
2017-03-25T04:33:12.891Z,1025.18
2017-03-25T04:33:53.518Z,1025.17
2017-03-25T04:34:34.220Z,1025.15
2017-03-25T04:35:14.852Z,1025.14
2017-03-25T04:35:55.503Z,1025.17
2017-03-25T04:36:36.096Z,1025.16
2017-03-25T04:37:16.735Z,1025.18
2017-03-25T04:37:57.356Z,1025.15
2017-03-25T04:38:37.927Z,1025.16
2017-03-25T04:39:18.523Z,1025.19
2017-03-25T04:39:59.111Z,1025.16
2017-03-25T04:40:39.734Z,1025.22
2017-03-25T04:41:20.304Z,1025.16
2017-03-25T04:42:00.901Z,1025.17
2017-03-25T04:42:41.496Z,1025.2
2017-03-25T04:43:22.093Z,1025.2
2017-03-25T04:44:02.694Z,1025.15
2017-03-25T04:44:43.274Z,1025.16
2017-03-25T04:45:23.870Z,1025.15
2017-03-25T04:46:04.472Z,1025.14
2017-03-25T04:46:45.035Z,1025.2
2017-03-25T04:47:25.628Z,1025.18
2017-03-25T04:48:06.238Z,1025.19
2017-03-25T04:48:46.826Z,1025.17
2017-03-25T04:49:27.425Z,1025.2
2017-03-25T04:50:08.030Z,1025.19
2017-03-25T04:50:48.616Z,1025.23
2017-03-25T04:51:29.180Z,1025.21
2017-03-25T04:52:09.795Z,1025.25
2017-03-25T04:52:50.390Z,1025.24
2017-03-25T04:53:30.978Z,1025.24
2017-03-25T04:54:11.559Z,1025.25
2017-03-25T04:54:52.132Z,1025.28
2017-03-25T04:55:32.698Z,1025.28
2017-03-25T04:56:13.312Z,1025.31
2017-03-25T04:56:53.890Z,1025.3
2017-03-25T04:57:34.503Z,1025.27
2017-03-25T04:58:15.109Z,1025.29
2017-03-25T04:58:55.680Z,1025.21
2017-03-25T04:59:36.257Z,1025.26
2017-03-25T05:00:16.871Z,1025.25
2017-03-25T05:00:57.458Z,1025.24
2017-03-25T05:01:38.088Z,1025.25
2017-03-25T05:02:18.673Z,1025.28
2017-03-25T05:02:59.263Z,1025.26
2017-03-25T05:03:39.863Z,1025.25
2017-03-25T05:04:20.528Z,1025.21
2017-03-25T05:05:01.131Z,1025.24
2017-03-25T05:05:41.721Z,1025.26
2017-03-25T05:06:22.331Z,1025.22
2017-03-25T05:07:02.893Z,1025.25
2017-03-25T05:07:43.550Z,1025.23
2017-03-25T05:08:24.156Z,1025.24
2017-03-25T05:09:04.781Z,1025.24
2017-03-25T05:09:45.346Z,1025.23
2017-03-25T05:10:25.925Z,1025.25
2017-03-25T05:11:06.544Z,1025.24
2017-03-25T05:11:47.141Z,1025.23
2017-03-25T05:12:27.800Z,1025.23
2017-03-25T05:13:08.388Z,1025.25
2017-03-25T05:13:49.024Z,1025.26
2017-03-25T05:14:29.610Z,1025.27
2017-03-25T05:15:10.197Z,1025.3
2017-03-25T05:15:50.780Z,1025.29
2017-03-25T05:16:31.354Z,1025.27
2017-03-25T05:17:11.962Z,1025.26
2017-03-25T05:17:52.547Z,1025.26
2017-03-25T05:18:33.114Z,1025.25
2017-03-25T05:19:13.685Z,1025.25
2017-03-25T05:19:54.316Z,1025.27
2017-03-25T05:20:34.906Z,1025.27
2017-03-25T05:21:15.539Z,1025.25
2017-03-25T05:21:56.128Z,1025.24
2017-03-25T05:22:36.731Z,1025.25
2017-03-25T05:23:17.322Z,1025.24
2017-03-25T05:23:57.916Z,1025.26
2017-03-25T05:24:38.505Z,1025.28
2017-03-25T05:25:19.073Z,1025.26
2017-03-25T05:25:59.724Z,1025.26
2017-03-25T05:26:40.290Z,1025.25
2017-03-25T05:27:20.892Z,1025.26
2017-03-25T05:28:01.501Z,1025.23
2017-03-25T05:28:42.084Z,1025.26
2017-03-25T05:29:22.670Z,1025.23
2017-03-25T05:30:03.250Z,1025.24
2017-03-25T05:30:43.830Z,1025.28
2017-03-25T05:31:24.404Z,1025.26
2017-03-25T05:32:05.004Z,1025.3
2017-03-25T05:32:45.587Z,1025.26
2017-03-25T05:33:26.183Z,1025.27
2017-03-25T05:34:06.789Z,1025.29
2017-03-25T05:34:47.363Z,1025.27
2017-03-25T05:35:27.949Z,1025.25
2017-03-25T05:36:08.541Z,1025.23
2017-03-25T05:36:49.105Z,1025.24
2017-03-25T05:37:29.691Z,1025.21
2017-03-25T05:38:10.267Z,1025.2
2017-03-25T05:38:50.854Z,1025.2
2017-03-25T05:39:31.458Z,1025.2
2017-03-25T05:40:12.058Z,1025.24
2017-03-25T05:40:52.685Z,1025.26
2017-03-25T05:41:33.238Z,1025.23
2017-03-25T05:42:13.821Z,1025.22
2017-03-25T05:42:54.471Z,1025.27
2017-03-25T05:43:35.033Z,1025.29
2017-03-25T05:44:15.612Z,1025.26
2017-03-25T05:44:56.209Z,1025.29
2017-03-25T05:45:36.854Z,1025.26
2017-03-25T05:46:17.467Z,1025.21
2017-03-25T05:46:58.064Z,1025.2
2017-03-25T05:47:38.657Z,1025.22
2017-03-25T05:48:19.250Z,1025.17
2017-03-25T05:48:59.824Z,1025.18
2017-03-25T05:49:40.427Z,1025.18
2017-03-25T05:50:21.004Z,1025.21
2017-03-25T05:51:01.576Z,1025.21
2017-03-25T05:51:42.171Z,1025.2
2017-03-25T05:52:22.754Z,1025.2
2017-03-25T05:53:03.328Z,1025.19
2017-03-25T05:53:43.912Z,1025.18
2017-03-25T05:54:24.486Z,1025.18
2017-03-25T05:55:05.083Z,1025.18
2017-03-25T05:55:45.655Z,1025.17
2017-03-25T05:56:26.228Z,1025.17
2017-03-25T05:57:06.799Z,1025.14
2017-03-25T05:57:47.386Z,1025.14
2017-03-25T05:58:27.984Z,1025.13
2017-03-25T05:59:08.577Z,1025.15
2017-03-25T05:59:49.232Z,1025.13
2017-03-25T06:00:29.823Z,1025.13
2017-03-25T06:01:10.449Z,1025.14
2017-03-25T06:01:51.066Z,1025.15
2017-03-25T06:02:31.654Z,1025.12
2017-03-25T06:03:12.269Z,1025.14
2017-03-25T06:03:52.860Z,1025.15
2017-03-25T06:04:33.465Z,1025.09
2017-03-25T06:05:14.062Z,1025.13
2017-03-25T06:05:54.619Z,1025.19
2017-03-25T06:06:35.218Z,1025.18
2017-03-25T06:07:15.802Z,1025.12
2017-03-25T06:07:56.370Z,1025.15
2017-03-25T06:08:36.967Z,1025.14
2017-03-25T06:09:17.540Z,1025.12
2017-03-25T06:09:58.158Z,1025.14
2017-03-25T06:10:38.743Z,1025.11
2017-03-25T06:11:19.327Z,1025.08
2017-03-25T06:11:59.972Z,1025.09
2017-03-25T06:12:40.529Z,1025.07
2017-03-25T06:13:21.120Z,1025.08
2017-03-25T06:14:01.738Z,1025.1
2017-03-25T06:14:42.322Z,1025.1
2017-03-25T06:15:22.911Z,1025.1
2017-03-25T06:16:03.576Z,1025.11
2017-03-25T06:16:44.229Z,1025.08
2017-03-25T06:17:24.859Z,1025.13
2017-03-25T06:18:05.442Z,1025.14
2017-03-25T06:18:46.042Z,1025.12
2017-03-25T06:19:26.640Z,1025.13
2017-03-25T06:20:07.205Z,1025.11
2017-03-25T06:20:47.840Z,1025.09
2017-03-25T06:21:28.488Z,1025.14
2017-03-25T06:22:09.125Z,1025.15
2017-03-25T06:22:49.713Z,1025.17
2017-03-25T06:23:30.415Z,1025.2
2017-03-25T06:24:11.041Z,1025.24
2017-03-25T06:24:51.628Z,1025.17
2017-03-25T06:25:32.214Z,1025.19
2017-03-25T06:26:12.815Z,1025.14
2017-03-25T06:26:53.406Z,1025.14
2017-03-25T06:27:33.969Z,1025.14
2017-03-25T06:28:14.587Z,1025.12
2017-03-25T06:28:55.153Z,1025.13
2017-03-25T06:29:35.917Z,1025.15
2017-03-25T06:30:16.643Z,1025.18
2017-03-25T06:30:57.475Z,1025.16
2017-03-25T06:31:38.080Z,1025.19
2017-03-25T06:32:18.677Z,1025.21
2017-03-25T06:32:59.293Z,1025.18
2017-03-25T06:33:39.861Z,1025.19
2017-03-25T06:34:20.461Z,1025.17
2017-03-25T06:35:01.037Z,1025.21
2017-03-25T06:35:41.651Z,1025.21
2017-03-25T06:36:22.272Z,1025.24
2017-03-25T06:37:02.841Z,1025.2
2017-03-25T06:37:43.416Z,1025.22
2017-03-25T06:38:24.001Z,1025.22
2017-03-25T06:39:04.583Z,1025.2
2017-03-25T06:39:45.222Z,1025.18
2017-03-25T06:40:25.784Z,1025.19
2017-03-25T06:41:06.474Z,1025.21
2017-03-25T06:41:47.112Z,1025.19
2017-03-25T06:42:27.714Z,1025.2
2017-03-25T06:43:08.317Z,1025.19
2017-03-25T06:43:48.917Z,1025.1
2017-03-25T06:44:29.503Z,1025.13
2017-03-25T06:45:10.268Z,1025.13
2017-03-25T06:45:50.866Z,1025.15
2017-03-25T06:46:31.497Z,1025.11
2017-03-25T06:47:12.102Z,1025.18
2017-03-25T06:47:52.723Z,1025.17
2017-03-25T06:48:33.340Z,1025.16
2017-03-25T06:49:13.922Z,1025.17
2017-03-25T06:49:54.526Z,1025.2
2017-03-25T06:50:35.102Z,1025.19
2017-03-25T06:51:15.675Z,1025.23
2017-03-25T06:51:56.249Z,1025.2
2017-03-25T06:52:36.836Z,1025.24
2017-03-25T06:53:17.432Z,1025.23
2017-03-25T06:53:58.026Z,1025.24
2017-03-25T06:54:38.609Z,1025.22
2017-03-25T06:55:19.187Z,1025.21
2017-03-25T06:55:59.787Z,1025.21
2017-03-25T06:56:40.371Z,1025.27
2017-03-25T06:57:20.986Z,1025.26
2017-03-25T06:58:01.546Z,1025.24
2017-03-25T06:58:42.120Z,1025.25
2017-03-25T06:59:22.710Z,1025.26
2017-03-25T07:00:03.280Z,1025.26
2017-03-25T07:00:43.857Z,1025.25
2017-03-25T07:01:24.455Z,1025.24
2017-03-25T07:02:05.076Z,1025.23
2017-03-25T07:02:45.641Z,1025.3
2017-03-25T07:03:26.265Z,1025.29
2017-03-25T07:04:06.864Z,1025.32
2017-03-25T07:04:47.487Z,1025.36
2017-03-25T07:05:28.070Z,1025.28
2017-03-25T07:06:08.645Z,1025.22
2017-03-25T07:06:49.228Z,1025.23
2017-03-25T07:07:29.899Z,1025.29
2017-03-25T07:08:10.497Z,1025.29
2017-03-25T07:08:51.065Z,1025.3
2017-03-25T07:09:31.694Z,1025.29
2017-03-25T07:10:12.269Z,1025.26
2017-03-25T07:10:52.882Z,1025.28
2017-03-25T07:11:33.475Z,1025.29
2017-03-25T07:12:14.126Z,1025.25
2017-03-25T07:12:55.315Z,1025.24
2017-03-25T07:13:35.917Z,1025.29
2017-03-25T07:14:16.527Z,1025.24
2017-03-25T07:14:57.130Z,1025.31
2017-03-25T07:15:42.283Z,1025.32
2017-03-25T07:16:27.811Z,1025.28
2017-03-25T07:17:09.122Z,1025.36
2017-03-25T07:17:49.773Z,1025.38
2017-03-25T07:18:30.360Z,1025.4
2017-03-25T07:19:10.979Z,1025.41
2017-03-25T07:19:51.560Z,1025.42
2017-03-25T07:20:32.165Z,1025.43
2017-03-25T07:21:12.754Z,1025.41
2017-03-25T07:21:53.356Z,1025.43
2017-03-25T07:22:33.955Z,1025.36
2017-03-25T07:23:14.813Z,1025.36
2017-03-25T07:23:55.489Z,1025.35
2017-03-25T07:24:37.350Z,1025.34
2017-03-25T07:25:17.971Z,1025.29
2017-03-25T07:25:58.581Z,1025.31
2017-03-25T07:26:39.177Z,1025.32
2017-03-25T07:27:19.764Z,1025.3
2017-03-25T07:28:00.352Z,1025.32
2017-03-25T07:28:40.942Z,1025.32
2017-03-25T07:29:21.510Z,1025.3
2017-03-25T07:30:02.140Z,1025.32
2017-03-25T07:30:42.715Z,1025.32
2017-03-25T07:31:23.302Z,1025.28
2017-03-25T07:32:03.910Z,1025.27
2017-03-25T07:32:44.494Z,1025.3
2017-03-25T07:33:25.099Z,1025.27
2017-03-25T07:34:05.708Z,1025.29
2017-03-25T07:34:46.309Z,1025.28
2017-03-25T07:35:26.915Z,1025.28
2017-03-25T07:36:07.522Z,1025.27
2017-03-25T07:36:48.126Z,1025.27
2017-03-25T07:37:28.746Z,1025.21
2017-03-25T07:38:09.341Z,1025.28
2017-03-25T07:38:49.951Z,1025.26
2017-03-25T07:39:34.569Z,1025.25
2017-03-25T07:40:15.174Z,1025.23
2017-03-25T07:40:55.773Z,1025.2
2017-03-25T07:41:36.388Z,1025.18
2017-03-25T07:42:17.002Z,1025.17
2017-03-25T07:42:57.589Z,1025.11
2017-03-25T07:43:38.183Z,1025.1
2017-03-25T07:44:18.792Z,1025.14
2017-03-25T07:44:59.486Z,1025.16
2017-03-25T07:45:40.140Z,1025.2
2017-03-25T07:46:20.790Z,1025.22
2017-03-25T07:47:01.362Z,1025.22
2017-03-25T07:47:41.970Z,1025.18
2017-03-25T07:48:22.607Z,1025.18
2017-03-25T07:49:03.218Z,1025.22
2017-03-25T07:49:43.820Z,1025.22
2017-03-25T07:50:24.414Z,1025.19
2017-03-25T07:51:04.986Z,1025.22
2017-03-25T07:51:45.598Z,1025.19
2017-03-25T07:52:26.175Z,1025.21
2017-03-25T07:53:06.790Z,1025.2
2017-03-25T07:53:47.391Z,1025.18
2017-03-25T07:54:28.041Z,1025.24
2017-03-25T07:55:08.639Z,1025.21
2017-03-25T07:55:49.266Z,1025.2
2017-03-25T07:56:29.862Z,1025.25
2017-03-25T07:57:10.461Z,1025.21
2017-03-25T07:57:51.084Z,1025.26
2017-03-25T07:58:31.673Z,1025.25
2017-03-25T07:59:12.251Z,1025.27
2017-03-25T07:59:52.834Z,1025.31
2017-03-25T08:00:33.435Z,1025.23
2017-03-25T08:01:14.100Z,1025.23
2017-03-25T08:01:54.865Z,1025.25
2017-03-25T08:02:35.456Z,1025.19
2017-03-25T08:03:16.090Z,1025.19
2017-03-25T08:03:56.698Z,1025.22
2017-03-25T08:04:37.346Z,1025.2
2017-03-25T08:05:17.996Z,1025.23
2017-03-25T08:05:58.588Z,1025.19
2017-03-25T08:06:39.366Z,1025.18
2017-03-25T08:07:19.978Z,1025.15
2017-03-25T08:08:00.633Z,1025.1
2017-03-25T08:08:41.290Z,1025.12
2017-03-25T08:09:21.909Z,1025.14
2017-03-25T08:10:02.539Z,1025.11
2017-03-25T08:10:43.156Z,1025.14
2017-03-25T08:11:23.813Z,1025.12
2017-03-25T08:12:04.442Z,1025.11
2017-03-25T08:12:45.085Z,1025.07
2017-03-25T08:13:25.686Z,1025.1